Time;durP1;ratioP1;P1;durP2;ratioP2;P2;SDS_P1;SDS_P2;PMS_P1;PMS_P2;Temp;Humidity;BMP_temperature;BMP_pressure;BME280_temperature;BME280_humidity;BME280_pressure;Samples;Min_cycle;Max_cycle;Signal;HPM_P1;HPM_P2
2021/03/27 00:03:27;;;;;;;2.00;1.80;;;18.10;53.60;;;;;;10410075;28;20217;-22
2021/03/27 00:08:52;;;;;;;2.17;1.90;;;18.00;53.70;;;;;;10410138;28;20791;-22
2021/03/27 00:14:19;;;;;;;1.90;1.80;;;18.00;53.60;;;;;;10409841;28;20275;-22
2021/03/27 00:19:46;;;;;;;2.10;1.83;;;18.00;53.80;;;;;;10410085;28;20200;-23
2021/03/27 00:25:15;;;;;;;2.03;1.80;;;18.00;53.60;;;;;;10410670;28;20225;-23
2021/03/27 00:30:42;;;;;;;3.47;2.00;;;18.00;54.20;;;;;;10409513;28;20186;-22
2021/03/27 00:36:07;;;;;;;2.13;2.00;;;18.00;53.70;;;;;;10410425;28;20217;-23
2021/03/27 00:41:36;;;;;;;2.10;1.70;;;18.00;53.70;;;;;;10409016;28;20198;-18
2021/03/27 00:47:01;;;;;;;3.10;1.93;;;18.00;53.70;;;;;;10410340;28;20198;-22
2021/03/27 00:52:23;;;;;;;1.87;1.77;;;18.00;53.60;;;;;;10410107;28;20217;-22
2021/03/27 00:57:54;;;;;;;1.80;1.70;;;18.00;53.70;;;;;;10411247;28;20221;-24
2021/03/27 01:03:21;;;;;;;2.10;1.90;;;18.00;53.60;;;;;;10409925;28;20210;-22
2021/03/27 01:08:46;;;;;;;1.80;1.67;;;18.00;53.60;;;;;;10410364;28;20197;-21
2021/03/27 01:14:13;;;;;;;2.30;1.97;;;18.00;53.60;;;;;;10409317;28;20651;-19
2021/03/27 01:19:42;;;;;;;1.90;1.80;;;18.00;53.70;;;;;;10410758;28;20197;-21
2021/03/27 01:25:07;;;;;;;2.53;2.00;;;18.00;53.60;;;;;;10408574;28;20210;-25
2021/03/27 01:30:35;;;;;;;2.00;1.80;;;18.00;53.50;;;;;;10409504;28;20224;-21
2021/03/27 01:36:08;;;;;;;1.83;1.73;;;18.00;53.60;;;;;;10414533;28;20218;-23
2021/03/27 01:41:36;;;;;;;2.13;1.87;;;18.00;54.20;;;;;;10415524;28;20228;-24
2021/03/27 01:47:07;;;;;;;1.83;1.73;;;17.90;53.50;;;;;;10417052;28;20200;-21
2021/03/27 01:52:54;;;;;;;1.80;1.70;;;17.90;53.50;;;;;;10416479;28;20224;-22
2021/03/27 01:58:20;;;;;;;2.40;1.87;;;17.90;53.50;;;;;;10412280;28;20193;-21
2021/03/27 02:03:46;;;;;;;2.60;2.00;;;17.90;53.60;;;;;;10414829;28;20256;-23
2021/03/27 02:09:13;;;;;;;3.20;2.17;;;17.90;53.50;;;;;;10414891;28;20213;-23
2021/03/27 02:14:42;;;;;;;2.43;1.67;;;17.90;53.30;;;;;;10414273;28;20264;-23
2021/03/27 02:20:32;;;;;;;1.73;1.63;;;17.90;53.30;;;;;;10414008;28;20190;-21
2021/03/27 02:26:23;;;;;;;1.90;1.80;;;17.90;53.50;;;;;;10415963;28;20263;-25
2021/03/27 02:31:47;;;;;;;1.70;1.50;;;17.90;53.40;;;;;;10414226;28;20300;-22
2021/03/27 02:37:17;;;;;;;2.17;1.70;;;17.90;53.60;;;;;;10414051;28;20194;-22
2021/03/27 02:42:50;;;;;;;2.87;1.80;;;17.90;53.70;;;;;;10412638;28;20721;-24
2021/03/27 02:48:20;;;;;;;2.07;1.80;;;17.90;53.60;;;;;;10412674;28;20197;-23
2021/03/27 02:53:53;;;;;;;2.30;1.50;;;17.90;53.60;;;;;;10412472;28;20296;-22
2021/03/27 02:59:26;;;;;;;2.00;1.77;;;17.90;53.60;;;;;;10403250;28;20198;-18
2021/03/27 03:05:00;;;;;;;2.43;1.80;;;17.90;53.60;;;;;;10412209;28;20234;-22
2021/03/27 03:10:28;;;;;;;1.87;1.77;;;17.90;53.80;;;;;;10411005;28;20198;-22
2021/03/27 03:15:55;;;;;;;1.70;1.60;;;17.90;53.50;;;;;;10411614;28;20578;-23
2021/03/27 03:21:24;;;;;;;2.17;1.67;;;17.90;53.30;;;;;;10411320;28;20198;-24
2021/03/27 03:27:11;;;;;;;3.33;1.60;;;17.80;53.60;;;;;;10411631;28;20190;-22
2021/03/27 03:32:40;;;;;;;2.37;1.87;;;17.90;53.90;;;;;;10410816;28;20221;-22
2021/03/27 03:38:24;;;;;;;2.00;1.80;;;17.80;53.80;;;;;;10411232;28;20186;-22
2021/03/27 03:43:53;;;;;;;2.27;1.83;;;17.80;54.20;;;;;;10410606;28;20205;-23
2021/03/27 03:49:46;;;;;;;2.53;2.10;;;17.80;54.10;;;;;;10412601;28;20190;-21
2021/03/27 03:55:18;;;;;;;1.83;1.60;;;17.80;54.20;;;;;;10427148;23;20244;-25
2021/03/27 04:00:46;;;;;;;2.00;1.80;;;17.80;54.10;;;;;;10410105;28;20190;-24
2021/03/27 04:06:13;;;;;;;3.50;1.87;;;17.80;54.20;;;;;;10410386;28;20212;-25
2021/03/27 04:11:54;;;;;;;1.77;1.67;;;17.80;54.30;;;;;;10411255;28;20194;-24
2021/03/27 04:17:27;;;;;;;2.40;1.70;;;17.80;54.60;;;;;;10411333;28;20189;-26
2021/03/27 04:22:57;;;;;;;1.67;1.43;;;17.80;54.90;;;;;;10411593;28;20206;-24
2021/03/27 04:28:37;;;;;;;1.30;1.20;;;17.80;54.30;;;;;;10411691;28;20728;-25
2021/03/27 04:34:06;;;;;;;1.20;1.10;;;17.80;54.30;;;;;;10410880;28;20521;-24
2021/03/27 04:39:33;;;;;;;1.37;1.27;;;17.80;54.20;;;;;;10410131;28;20581;-25
2021/03/27 04:45:06;;;;;;;1.43;1.20;;;17.80;53.90;;;;;;10410820;28;20210;-24
2021/03/27 04:50:39;;;;;;;1.77;1.30;;;17.80;54.10;;;;;;10410716;28;20197;-25
2021/03/27 04:56:08;;;;;;;1.10;1.03;;;17.80;54.00;;;;;;10410299;28;20210;-25
2021/03/27 05:01:52;;;;;;;1.20;1.10;;;17.80;54.00;;;;;;10410098;28;20190;-24
2021/03/27 05:07:20;;;;;;;1.10;1.00;;;17.80;53.80;;;;;;10410245;28;20186;-24
2021/03/27 05:12:57;;;;;;;1.10;1.10;;;17.80;54.50;;;;;;10417735;28;20739;-23
2021/03/27 05:18:48;;;;;;;1.70;1.30;;;17.70;54.50;;;;;;10417887;28;20632;-24
2021/03/27 05:24:21;;;;;;;0.93;0.90;;;17.80;53.80;;;;;;10416928;28;20605;-24
2021/03/27 05:30:00;;;;;;;1.07;0.90;;;17.70;53.80;;;;;;10417891;28;20331;-25
2021/03/27 05:35:32;;;;;;;1.10;1.00;;;17.70;54.00;;;;;;10417013;28;20601;-24
2021/03/27 05:41:32;;;;;;;1.23;1.00;;;17.70;53.90;;;;;;10416518;28;20190;-26
2021/03/27 05:47:51;;;;;;;0.77;0.77;;;17.70;54.10;;;;;;10418029;28;20591;-24
2021/03/27 05:54:05;;;;;;;0.93;0.80;;;17.80;54.10;;;;;;10379995;28;20279;-24
2021/03/27 05:59:52;;;;;;;1.50;1.03;;;17.70;53.80;;;;;;10416723;28;20204;-25
2021/03/27 06:05:26;;;;;;;1.00;0.80;;;17.70;54.00;;;;;;10416501;28;20268;-24
2021/03/27 06:11:17;;;;;;;1.00;0.90;;;17.70;54.00;;;;;;10415556;28;20190;-24
2021/03/27 06:17:06;;;;;;;0.90;0.90;;;17.70;54.10;;;;;;10416518;28;20316;-24
2021/03/27 06:22:45;;;;;;;2.37;1.10;;;17.80;54.10;;;;;;10414940;28;20709;-26
2021/03/27 06:28:43;;;;;;;1.10;1.00;;;17.70;54.10;;;;;;10415455;28;20194;-24
2021/03/27 06:34:43;;;;;;;1.17;1.10;;;17.70;54.00;;;;;;10415366;28;20221;-25
2021/03/27 06:40:34;;;;;;;1.30;1.00;;;17.70;54.20;;;;;;10415037;28;20202;-24
2021/03/27 06:46:10;;;;;;;1.73;1.20;;;17.70;54.20;;;;;;10384620;28;20221;-23
2021/03/27 06:52:03;;;;;;;1.63;0.90;;;17.70;54.20;;;;;;10414050;28;20197;-24
2021/03/27 06:57:51;;;;;;;1.43;1.13;;;17.70;54.20;;;;;;10412685;28;20194;-24
2021/03/27 07:03:45;;;;;;;1.60;1.30;;;17.70;54.40;;;;;;10373326;28;20214;-24
2021/03/27 07:09:48;;;;;;;1.40;1.10;;;17.70;54.20;;;;;;10371296;28;20321;-24
2021/03/27 07:15:55;;;;;;;1.77;0.90;;;17.70;54.30;;;;;;10373941;28;20222;-24
2021/03/27 07:22:01;;;;;;;0.87;0.87;;;17.70;54.60;;;;;;10338372;28;20252;-24
2021/03/27 07:28:00;;;;;;;1.23;0.97;;;17.70;55.10;;;;;;10393261;28;20204;-23
2021/03/27 07:33:43;;;;;;;1.10;1.00;;;17.70;54.70;;;;;;10407635;28;20222;-24
2021/03/27 07:39:36;;;;;;;1.47;0.87;;;17.70;54.30;;;;;;10409949;28;20205;-25
2021/03/27 07:45:07;;;;;;;2.57;0.90;;;17.70;54.30;;;;;;10412867;28;20247;-22
2021/03/27 07:50:56;;;;;;;0.80;0.80;;;17.70;54.20;;;;;;10411655;28;20216;-25
2021/03/27 07:56:38;;;;;;;1.00;0.90;;;17.70;54.30;;;;;;10411861;28;20593;-23
2021/03/27 08:02:18;;;;;;;1.93;1.27;;;17.70;54.20;;;;;;10411771;28;20185;-24
2021/03/27 08:08:03;;;;;;;1.60;1.10;;;17.70;54.20;;;;;;10410008;28;20593;-24
2021/03/27 08:13:41;;;;;;;1.53;0.87;;;17.70;54.40;;;;;;10409769;28;20605;-24
2021/03/27 08:19:33;;;;;;;1.33;0.87;;;17.70;54.50;;;;;;10415600;28;20197;-24
2021/03/27 08:24:58;;;;;;;2.80;0.90;;;17.90;53.60;;;;;;10408528;28;20210;-24
2021/03/27 08:30:46;;;;;;;1.43;0.90;;;18.00;52.10;;;;;;10407637;28;20198;-23
2021/03/27 08:36:23;;;;;;;6.00;1.67;;;18.00;52.00;;;;;;10424314;28;20228;-24
2021/03/27 08:42:06;;;;;;;4.80;1.50;;;17.80;51.30;;;;;;10409431;28;20198;-23
2021/03/27 08:47:55;;;;;;;4.37;1.73;;;17.70;50.60;;;;;;10418553;28;20193;-24
2021/03/27 08:53:46;;;;;;;5.30;1.97;;;17.70;50.10;;;;;;10395268;28;20604;-25
2021/03/27 08:59:41;;;;;;;6.00;2.00;;;17.80;49.80;;;;;;10417072;28;20205;-24
2021/03/27 09:05:16;;;;;;;3.33;2.03;;;17.80;49.70;;;;;;10412557;28;20700;-25
2021/03/27 09:11:07;;;;;;;4.37;1.80;;;17.80;50.30;;;;;;10423662;28;20660;-24
2021/03/27 09:17:05;;;;;;;4.17;2.03;;;17.90;51.10;;;;;;10455590;28;20228;-24
2021/03/27 09:22:58;;;;;;;2.77;1.80;;;17.80;50.10;;;;;;10381376;28;20221;-23
2021/03/27 09:28:32;;;;;;;3.83;1.80;;;17.80;49.80;;;;;;10405692;28;20229;-24
2021/03/27 09:34:00;;;;;;;4.97;1.77;;;17.70;50.00;;;;;;10414894;28;20276;-21
2021/03/27 09:39:28;;;;;;;3.63;1.70;;;17.70;49.70;;;;;;10415906;28;20197;-24
2021/03/27 09:45:20;;;;;;;2.73;1.47;;;17.70;49.20;;;;;;10415613;28;20217;-24
2021/03/27 09:50:51;;;;;;;3.70;1.63;;;17.70;49.90;;;;;;10408993;28;20361;-24
2021/03/27 09:56:23;;;;;;;2.73;1.60;;;17.70;49.80;;;;;;10437440;23;20803;-23
2021/03/27 10:01:51;;;;;;;5.23;1.57;;;17.60;49.10;;;;;;10447205;28;20205;-22
2021/03/27 10:07:23;;;;;;;4.57;1.73;;;17.60;48.40;;;;;;10422817;28;20220;-19
2021/03/27 10:12:58;;;;;;;3.80;1.70;;;17.50;48.20;;;;;;10454126;28;20209;-22
2021/03/27 10:18:33;;;;;;;2.97;1.90;;;17.50;49.20;;;;;;10449264;28;20679;-20
2021/03/27 10:24:02;;;;;;;5.30;1.80;;;17.50;48.60;;;;;;10430398;28;20233;-22
2021/03/27 10:29:36;;;;;;;3.33;1.87;;;17.50;49.30;;;;;;10454087;28;20247;-20
2021/03/27 10:35:00;;;;;;;2.20;1.43;;;17.50;48.70;;;;;;10452406;28;20771;-21
2021/03/27 10:40:35;;;;;;;5.20;2.03;;;17.50;48.20;;;;;;10443783;28;20193;-18
2021/03/27 10:46:12;;;;;;;4.07;2.03;;;17.40;47.60;;;;;;10412264;28;20589;-22
2021/03/27 10:51:59;;;;;;;1.63;1.30;;;17.40;48.60;;;;;;10411309;28;20204;-22
2021/03/27 10:57:41;;;;;;;5.80;1.80;;;17.50;49.10;;;;;;10433203;28;20266;-21
2021/03/27 11:03:16;;;;;;;2.90;1.20;;;17.70;49.30;;;;;;10463658;28;20196;-21
2021/03/27 11:09:08;;;;;;;2.83;1.20;;;17.70;49.50;;;;;;10443752;28;20193;-21
2021/03/27 11:14:55;;;;;;;1.80;1.27;;;17.80;49.70;;;;;;10452904;28;20224;-21
2021/03/27 11:20:38;;;;;;;4.77;1.20;;;17.80;50.20;;;;;;10452211;28;20208;-21
2021/03/27 11:26:32;;;;;;;3.87;1.00;;;17.90;50.70;;;;;;10453114;28;20220;-21
2021/03/27 11:32:11;;;;;;;4.03;1.10;;;17.90;51.00;;;;;;10612370;27;20520;-23
2021/03/27 11:37:41;;;;;;;3.90;0.97;;;17.90;51.40;;;;;;10610175;28;20708;-23
2021/03/27 11:43:34;;;;;;;3.67;1.20;;;18.00;52.30;;;;;;10609643;27;20198;-23
2021/03/27 11:49:08;;;;;;;1.70;0.90;;;18.00;52.10;;;;;;10598741;28;20219;-24
2021/03/27 11:54:47;;;;;;;1.80;0.93;;;18.00;51.90;;;;;;10593107;28;20218;-17
2021/03/27 12:00:48;;;;;;;2.33;1.00;;;18.00;52.00;;;;;;10606403;28;20196;-20
2021/03/27 12:06:22;;;;;;;1.90;1.10;;;18.00;52.00;;;;;;10581404;28;20641;-17
2021/03/27 12:12:09;;;;;;;1.83;1.07;;;18.00;52.10;;;;;;10597170;28;20242;-21
2021/03/27 12:17:43;;;;;;;2.03;0.90;;;18.00;52.60;;;;;;10598323;28;20207;-22
2021/03/27 12:23:16;;;;;;;3.07;1.20;;;18.00;52.60;;;;;;10596735;28;20237;-22
2021/03/27 12:28:46;;;;;;;1.80;0.90;;;18.10;52.80;;;;;;10596888;27;20432;-23
2021/03/27 12:34:13;;;;;;;8.87;1.17;;;18.10;52.70;;;;;;10595589;28;20219;-22
2021/03/27 12:39:51;;;;;;;3.87;0.93;;;18.20;53.10;;;;;;10582819;28;20213;-24
2021/03/27 12:45:19;;;;;;;5.40;1.10;;;18.10;53.10;;;;;;10603497;27;20211;-23
2021/03/27 12:50:55;;;;;;;12.97;1.13;;;18.10;51.90;;;;;;10584375;27;20345;-22
2021/03/27 12:56:37;;;;;;;12.67;2.03;;;18.10;51.90;;;;;;10609538;27;20740;-21
2021/03/27 13:02:19;;;;;;;16.93;2.20;;;18.20;52.20;;;;;;10576483;27;20691;-21
2021/03/27 13:07:49;;;;;;;21.63;2.93;;;18.10;51.70;;;;;;10604098;27;20627;-21
2021/03/27 13:13:21;;;;;;;24.07;3.40;;;18.20;51.80;;;;;;10642692;27;20218;-21
2021/03/27 13:18:58;;;;;;;26.53;3.67;;;18.20;51.80;;;;;;10653752;27;20197;-24
2021/03/27 13:24:24;;;;;;;36.03;3.90;;;18.20;52.20;;;;;;10616334;27;20217;-24
2021/03/27 13:29:48;;;;;;;37.37;3.93;;;18.20;52.60;;;;;;10616407;27;20214;-22
2021/03/27 13:35:18;;;;;;;26.77;4.50;;;18.20;50.90;;;;;;10614770;27;20283;-22
2021/03/27 13:40:43;;;;;;;80.97;27.00;;;18.00;49.50;;;;;;10615693;27;20740;-23
2021/03/27 13:46:14;;;;;;;138.77;36.90;;;18.10;50.80;;;;;;10615936;27;20211;-22
2021/03/27 13:51:42;;;;;;;172.93;50.03;;;18.20;51.20;;;;;;10614370;27;20566;-17
2021/03/27 13:57:15;;;;;;;165.93;50.30;;;18.20;51.20;;;;;;10615418;27;20688;-19
2021/03/27 14:02:51;;;;;;;152.00;47.27;;;18.10;51.40;;;;;;10613925;27;20243;-16
2021/03/27 14:08:29;;;;;;;128.27;41.13;;;18.10;51.30;;;;;;10614511;27;20233;-22
2021/03/27 14:13:54;;;;;;;118.10;41.73;;;18.10;51.00;;;;;;10614116;27;20233;-21
2021/03/27 14:19:32;;;;;;;120.97;38.77;;;18.10;52.20;;;;;;10614608;27;20577;-24
2021/03/27 14:25:21;;;;;;;113.13;38.27;;;18.20;52.30;;;;;;10616151;27;20218;-23
2021/03/27 14:30:52;;;;;;;102.57;36.73;;;18.20;52.20;;;;;;10614156;27;20753;-23
2021/03/27 14:36:18;;;;;;;84.73;32.37;;;18.20;52.40;;;;;;10623214;27;20213;-22
2021/03/27 14:42:06;;;;;;;83.70;31.83;;;18.10;52.40;;;;;;10656964;27;20565;-24
2021/03/27 14:47:58;;;;;;;77.63;29.47;;;18.10;52.60;;;;;;10656615;27;20610;-23
2021/03/27 14:53:34;;;;;;;75.30;29.03;;;18.10;52.70;;;;;;10654969;27;20214;-25
2021/03/27 14:59:02;;;;;;;66.83;25.63;;;18.10;52.80;;;;;;10655258;27;20198;-21
2021/03/27 15:04:29;;;;;;;56.97;23.43;;;18.00;52.90;;;;;;10613888;27;20640;-25
2021/03/27 15:10:29;;;;;;;54.67;22.97;;;18.00;52.80;;;;;;10613814;27;20593;-25
2021/03/27 15:16:07;;;;;;;66.80;24.43;;;18.00;53.60;;;;;;10619410;27;20210;-23
2021/03/27 15:21:41;;;;;;;57.33;21.23;;;18.00;54.30;;;;;;10605215;27;20403;-23
2021/03/27 15:27:18;;;;;;;46.93;19.00;;;18.10;54.20;;;;;;10616988;27;20241;-24
2021/03/27 15:32:50;;;;;;;47.97;18.70;;;18.10;54.40;;;;;;10617008;28;20201;-23
2021/03/27 15:38:33;;;;;;;40.60;16.47;;;18.20;54.30;;;;;;10618885;27;20183;-22
2021/03/27 15:44:06;;;;;;;38.20;16.07;;;18.20;54.20;;;;;;10616817;28;20231;-22
2021/03/27 15:49:35;;;;;;;38.50;15.10;;;18.20;54.10;;;;;;10628802;27;20212;-23
2021/03/27 15:55:07;;;;;;;32.27;14.17;;;18.20;54.40;;;;;;10623129;22;20235;-23
2021/03/27 16:00:44;;;;;;;26.27;12.30;;;18.20;53.90;;;;;;10493074;28;20191;-26
2021/03/27 16:06:18;;;;;;;33.73;13.50;;;18.20;54.10;;;;;;10493723;28;20287;-24
2021/03/27 16:11:48;;;;;;;31.53;13.43;;;18.20;54.10;;;;;;10469620;28;20587;-24
2021/03/27 16:17:34;;;;;;;31.93;12.30;;;18.20;54.00;;;;;;10497305;28;20227;-24
2021/03/27 16:22:59;;;;;;;32.70;10.67;;;18.30;54.60;;;;;;10499901;28;20192;-22
2021/03/27 16:28:46;;;;;;;22.17;10.47;;;18.30;54.30;;;;;;10499985;28;20212;-24
2021/03/27 16:34:19;;;;;;;22.70;9.23;;;18.40;54.10;;;;;;10498283;28;20220;-23
2021/03/27 16:39:55;;;;;;;19.57;8.60;;;18.30;54.50;;;;;;10495818;28;20581;-23
2021/03/27 16:45:24;;;;;;;21.00;9.13;;;18.30;54.30;;;;;;10497848;28;20250;-23
2021/03/27 16:50:59;;;;;;;21.83;8.90;;;18.30;54.40;;;;;;10497691;28;20699;-23
2021/03/27 16:56:32;;;;;;;17.93;8.30;;;18.30;54.40;;;;;;10496726;28;20221;-23
2021/03/27 17:02:03;;;;;;;19.00;8.10;;;18.30;54.60;;;;;;10465663;28;20224;-23
2021/03/27 17:07:34;;;;;;;19.17;8.10;;;18.30;54.40;;;;;;10461378;28;20258;-23
2021/03/27 17:13:03;;;;;;;16.33;6.40;;;18.30;54.50;;;;;;10495640;28;20216;-24
2021/03/27 17:18:53;;;;;;;16.00;6.70;;;18.60;53.90;;;;;;10496055;28;20189;-24
2021/03/27 17:24:19;;;;;;;15.47;6.17;;;18.70;53.10;;;;;;10496046;28;20224;-24
2021/03/27 17:29:52;;;;;;;13.47;6.60;;;18.80;52.80;;;;;;10495029;28;20208;-23
2021/03/27 17:35:21;;;;;;;9.70;5.20;;;19.00;52.70;;;;;;10495431;28;20212;-24
2021/03/27 17:41:17;;;;;;;14.37;5.63;;;19.10;52.50;;;;;;10496800;28;20215;-25
2021/03/27 17:46:46;;;;;;;10.07;5.30;;;19.20;52.30;;;;;;10496097;28;20603;-23
2021/03/27 17:52:12;;;;;;;12.30;5.67;;;18.90;52.50;;;;;;10495105;28;20208;-23
2021/03/27 17:57:38;;;;;;;10.53;4.83;;;18.80;52.90;;;;;;10494350;28;20252;-25
2021/03/27 18:03:05;;;;;;;10.27;4.93;;;18.70;53.20;;;;;;10494947;28;20189;-24
2021/03/27 18:08:29;;;;;;;10.57;5.17;;;18.50;53.40;;;;;;10494684;28;20210;-23
2021/03/27 18:14:12;;;;;;;9.00;4.73;;;18.50;53.50;;;;;;10463614;28;20304;-24
2021/03/27 18:19:41;;;;;;;7.97;4.40;;;18.40;53.60;;;;;;10492109;28;20963;-23
2021/03/27 18:25:19;;;;;;;8.67;4.70;;;18.40;53.40;;;;;;10492473;28;20228;-23
2021/03/27 18:30:56;;;;;;;8.87;3.87;;;18.50;53.30;;;;;;10464768;28;20216;-23
2021/03/27 18:36:24;;;;;;;7.90;4.00;;;18.80;53.10;;;;;;10493276;28;20675;-21
2021/03/27 18:41:50;;;;;;;8.67;4.17;;;19.00;52.60;;;;;;10493108;28;20238;-24
2021/03/27 18:47:30;;;;;;;7.93;3.33;;;19.20;52.30;;;;;;10493666;28;20220;-23
2021/03/27 18:52:57;;;;;;;5.00;3.10;;;19.20;52.00;;;;;;10493295;28;20196;-23
2021/03/27 18:58:19;;;;;;;6.17;3.57;;;19.30;52.00;;;;;;10493670;28;20635;-23
2021/03/27 19:03:41;;;;;;;7.63;3.40;;;19.30;51.90;;;;;;10491891;28;20266;-23
2021/03/27 19:09:11;;;;;;;5.90;3.00;;;19.40;51.90;;;;;;10486171;28;20220;-23
2021/03/27 19:14:46;;;;;;;6.37;3.20;;;19.40;51.80;;;;;;10489004;28;20227;-23
2021/03/27 19:20:22;;;;;;;5.30;2.50;;;19.50;51.80;;;;;;10491673;28;20262;-22
2021/03/27 19:25:44;;;;;;;3.80;2.57;;;19.60;51.50;;;;;;10454729;28;20224;-23
2021/03/27 19:31:17;;;;;;;4.57;2.50;;;19.60;51.50;;;;;;10450795;28;20225;-23
2021/03/27 19:36:40;;;;;;;5.10;2.60;;;19.60;51.40;;;;;;10463895;28;20934;-24
2021/03/27 19:42:06;;;;;;;6.23;2.97;;;19.50;51.60;;;;;;10491741;28;20200;-23
2021/03/27 19:47:33;;;;;;;3.73;2.37;;;19.40;52.50;;;;;;10490259;28;20216;-20
2021/03/27 19:53:03;;;;;;;4.83;2.63;;;19.30;52.40;;;;;;10498041;28;20555;-24
2021/03/27 19:58:31;;;;;;;4.23;2.23;;;19.20;52.80;;;;;;10474557;28;20260;-22
2021/03/27 20:04:00;;;;;;;3.40;2.00;;;19.20;53.10;;;;;;10484673;28;20648;-23
2021/03/27 20:09:43;;;;;;;4.97;2.33;;;19.20;53.30;;;;;;10499271;28;20209;-23
2021/03/27 20:15:21;;;;;;;4.83;2.10;;;19.00;53.40;;;;;;10496441;28;20212;-22
2021/03/27 20:20:56;;;;;;;3.77;2.37;;;19.00;53.50;;;;;;10509079;28;20203;-24
2021/03/27 20:26:40;;;;;;;3.87;2.10;;;19.00;53.60;;;;;;10497919;28;20216;-23
2021/03/27 20:32:36;;;;;;;3.00;1.90;;;18.90;53.60;;;;;;10497787;28;20216;-24
2021/03/27 20:38:12;;;;;;;4.07;2.10;;;18.80;53.70;;;;;;10499763;28;20223;-23
2021/03/27 20:43:55;;;;;;;5.37;2.00;;;18.80;53.60;;;;;;10498105;28;20202;-23
2021/03/27 20:49:36;;;;;;;3.43;2.00;;;18.80;53.50;;;;;;10497683;28;20211;-23
2021/03/27 20:55:02;;;;;;;4.57;2.23;;;18.90;53.50;;;;;;10497639;28;20714;-23
2021/03/27 21:00:30;;;;;;;5.07;2.43;;;18.90;53.30;;;;;;10495876;28;20307;-23
2021/03/27 21:05:56;;;;;;;4.63;1.90;;;18.90;53.20;;;;;;10495531;28;20219;-24
2021/03/27 21:11:21;;;;;;;3.43;1.73;;;18.90;53.10;;;;;;10493815;28;20216;-24
2021/03/27 21:16:54;;;;;;;5.20;2.27;;;18.90;53.10;;;;;;10496098;28;20216;-21
2021/03/27 21:22:34;;;;;;;4.03;1.63;;;18.90;53.10;;;;;;10495632;28;20185;-23
2021/03/27 21:28:32;;;;;;;3.37;1.80;;;18.80;53.40;;;;;;10497185;28;20307;-23
2021/03/27 21:34:19;;;;;;;3.30;1.70;;;18.70;53.40;;;;;;10496822;28;20213;-22
2021/03/27 21:39:52;;;;;;;4.27;1.87;;;18.60;53.50;;;;;;10495751;28;20260;-24
2021/03/27 21:45:25;;;;;;;4.47;1.87;;;18.50;53.40;;;;;;10495624;28;20216;-25
2021/03/27 21:50:58;;;;;;;2.00;1.40;;;18.50;53.70;;;;;;10495978;28;20220;-23
2021/03/27 21:56:29;;;;;;;3.40;1.50;;;18.40;53.70;;;;;;10509680;22;20228;-22
2021/03/27 22:02:04;;;;;;;4.13;2.00;;;18.40;53.70;;;;;;10494407;28;20274;-22
2021/03/27 22:07:29;;;;;;;3.43;1.90;;;18.40;53.80;;;;;;10472186;28;20217;-19
2021/03/27 22:13:32;;;;;;;3.30;1.80;;;18.30;53.60;;;;;;10471210;28;20200;-20
2021/03/27 22:19:00;;;;;;;3.87;1.80;;;18.30;53.60;;;;;;10493197;28;20181;-20
2021/03/27 22:24:27;;;;;;;3.63;2.00;;;18.30;54.20;;;;;;10493862;28;20250;-17
2021/03/27 22:30:14;;;;;;;3.67;1.70;;;18.20;53.70;;;;;;10493027;28;20212;-21
2021/03/27 22:36:08;;;;;;;5.13;2.10;;;18.30;53.60;;;;;;10489121;28;20710;-19
2021/03/27 22:42:00;;;;;;;2.43;1.40;;;18.20;53.60;;;;;;10459920;28;20630;-20
2021/03/27 22:47:28;;;;;;;3.10;1.53;;;18.20;53.50;;;;;;10493542;28;20235;-17
2021/03/27 22:53:08;;;;;;;3.63;1.80;;;18.10;53.70;;;;;;10493545;28;20691;-31
2021/03/27 22:58:37;;;;;;;4.13;1.87;;;18.10;53.50;;;;;;10489255;28;20216;-20
2021/03/27 23:04:40;;;;;;;1.90;1.20;;;18.10;53.70;;;;;;10493229;28;20204;-19
2021/03/27 23:10:34;;;;;;;4.37;1.60;;;18.10;53.70;;;;;;10428856;28;20227;-20
2021/03/27 23:16:02;;;;;;;2.37;1.60;;;18.10;54.00;;;;;;10421838;28;20228;-21
2021/03/27 23:21:30;;;;;;;2.90;1.50;;;18.10;53.70;;;;;;10492942;28;20200;-21
2021/03/27 23:27:02;;;;;;;3.07;1.70;;;18.10;53.80;;;;;;10492235;28;20212;-21
2021/03/27 23:32:28;;;;;;;3.37;1.43;;;18.10;53.80;;;;;;10491939;28;20216;-20
2021/03/27 23:37:55;;;;;;;5.33;1.73;;;18.00;53.70;;;;;;10468757;28;20221;-17
2021/03/27 23:43:20;;;;;;;3.03;1.80;;;18.00;53.70;;;;;;10469345;28;20184;-21
2021/03/27 23:48:46;;;;;;;4.27;1.80;;;18.00;53.80;;;;;;10492250;28;20763;-21
2021/03/27 23:54:21;;;;;;;3.10;1.67;;;18.00;53.90;;;;;;10490519;28;20215;-20
2021/03/27 23:59:59;;;;;;;4.07;1.70;;;17.90;53.50;;;;;;10486516;28;20196;-21
